Hauptseite
METAR-TAF:

METAR-TAF

Flughäfen :

Fliegerhorst Neuburg

Neuburg, Deutschland

Breite: 48-43N, Länge: 011-13E, Höhe: 380 m

Beobachtung

Neuester Wetterbericht von vor 53 Minuten, um 09:20 UTC
Wind 6 kt aus Ost
Temperatur -3°C
Luftfeuchtigkeit 80%
Luftdruck 1017 hPa
Sichtweite 10 km oder mehr
Leicht bewölkt in der Höhe von 15000 ft

METAR: ETSN 190920Z 09006KT 9999 FEW150 M03/M06 Q1017 BLU+

Zeit: 11:13 (10:13 UTC)

Prognose

Neuester Wetterbericht von vor 2 Stunden und 13 Minuten, um 08:00 UTC
Gültige Prognose vom 19 um 09 UTC bis 19 um 18 UTC
Wind 8 kt aus Ost
Sichtweite 10 km oder mehr
Leicht bewölkt in der Höhe von 1500 ft
Wahrscheinlichkeit 30%
vom 19 um 09 UTC bis 19 um 11 UTC
Wind 7 kt aus Ost
Sichtweite: 8000 m
Durchbrochene Bewölkung in der Höhe von 1200 ft

TAF: ETSN 190800Z 1909/1918 09008KT 9999 NSW FEW015 PROB30 1909/1911 09007KT 8000 NSW BKN012 BY ETGL

Wetterbeobachtungen und Prognosen von mehr als 4000 Flughäfen (METAR und TAF Bericht).

Die verfügbaren Stationen werden durch gelbe und rote Markierungen auf der Karte dargestellt.

Führen Sie die Maus auf sie, um den Namen der Station zu sehen.

Darauf klicken, um die Beobachtung von Wetterbeobachtungen und Prognosen zu sehen.

Um die Karte zu ändern : klicken Sie auf den grünen Tasten mit einem schwarzen Kreuz Zum Vergrößern, auf den grünen Button mit einem Gedankenstrich zu verkleinern, oder auf die grünen Pfeile für benachbarte Karten.


METAR-TAF: